Time;durP1;ratioP1;P1;durP2;ratioP2;P2;SDS_P1;SDS_P2;PMS_P1;PMS_P2;Temp;Humidity;BMP_temperature;BMP_pressure;BME280_temperature;BME280_humidity;BME280_pressure;Samples;Min_cycle;Max_cycle;Signal;HPM_P1;HPM_P2
2021/03/17 00:00:21;;;;;;;9.55;1.25;;;3.90;99.90;;;;;;5056970;28;20082;-88
2021/03/17 00:02:47;;;;;;;1.15;0.25;;;3.90;99.90;;;;;;5047685;28;20496;-89
2021/03/17 00:05:16;;;;;;;3.22;0.70;;;3.90;99.90;;;;;;5043814;28;20120;-87
2021/03/17 00:07:42;;;;;;;4.95;0.40;;;3.70;99.90;;;;;;5034459;28;20131;-87
2021/03/17 00:10:09;;;;;;;2.70;0.43;;;3.50;99.90;;;;;;5025964;28;20125;-88
2021/03/17 00:12:35;;;;;;;9.18;0.70;;;3.40;99.90;;;;;;5043770;28;20037;-87
2021/03/17 00:15:01;;;;;;;7.40;0.70;;;3.40;99.90;;;;;;5029260;28;20038;-88
2021/03/17 00:17:26;;;;;;;2.42;0.90;;;3.30;99.90;;;;;;5029544;28;20172;-88
2021/03/17 00:19:52;;;;;;;4.13;0.80;;;3.20;99.90;;;;;;5046451;28;20116;-87
2021/03/17 00:22:18;;;;;;;7.65;0.90;;;3.10;99.90;;;;;;5045289;28;20083;-87
2021/03/17 00:24:44;;;;;;;16.65;1.00;;;3.10;99.90;;;;;;5016976;28;20033;-88
2021/03/17 00:27:10;;;;;;;11.27;1.00;;;3.10;99.90;;;;;;5029911;28;20040;-87
2021/03/17 00:29:35;;;;;;;4.85;0.43;;;3.00;99.90;;;;;;5015707;28;20541;-87
2021/03/17 00:32:01;;;;;;;7.28;1.45;;;3.00;99.90;;;;;;5028674;28;20523;-87
2021/03/17 00:34:27;;;;;;;9.88;0.85;;;3.00;99.90;;;;;;5047324;28;20481;-86
2021/03/17 00:36:53;;;;;;;15.52;1.50;;;3.10;99.90;;;;;;5031652;28;20046;-87
2021/03/17 00:39:20;;;;;;;11.30;0.80;;;3.10;99.90;;;;;;5011830;28;20128;-88
2021/03/17 00:41:45;;;;;;;4.25;0.77;;;3.00;99.90;;;;;;5032013;28;20097;-88
2021/03/17 00:44:11;;;;;;;5.10;1.02;;;3.10;99.90;;;;;;5028774;28;20164;-89
2021/03/17 00:46:37;;;;;;;4.03;0.80;;;3.10;99.90;;;;;;5065530;28;20037;-87
2021/03/17 00:49:03;;;;;;;10.75;0.70;;;3.10;99.90;;;;;;5016749;28;20061;-88
2021/03/17 00:51:29;;;;;;;9.88;1.23;;;3.20;99.90;;;;;;5040628;28;20469;-88
2021/03/17 00:53:55;;;;;;;6.45;0.80;;;3.30;99.90;;;;;;5020382;28;20038;-88
2021/03/17 00:56:20;;;;;;;7.63;1.25;;;3.30;99.90;;;;;;5032645;28;20069;-89
2021/03/17 00:58:46;;;;;;;8.40;0.95;;;3.40;99.90;;;;;;5042622;28;20589;-88
2021/03/17 01:01:12;;;;;;;12.88;1.38;;;3.50;99.90;;;;;;5024818;28;20044;-89
2021/03/17 01:03:38;;;;;;;8.80;1.35;;;3.40;99.90;;;;;;5045059;28;20520;-88
2021/03/17 01:06:04;;;;;;;20.33;1.30;;;3.50;99.90;;;;;;5027206;28;20132;-87
2021/03/17 01:08:30;;;;;;;5.70;0.98;;;3.50;99.90;;;;;;5015902;28;20073;-87
2021/03/17 01:10:56;;;;;;;10.45;1.42;;;3.50;99.90;;;;;;4993080;28;20081;-87
2021/03/17 01:13:21;;;;;;;7.88;0.90;;;3.60;99.90;;;;;;5029531;28;20216;-87
2021/03/17 01:15:47;;;;;;;8.70;0.93;;;3.70;99.90;;;;;;5030394;28;20041;-87
2021/03/17 01:18:13;;;;;;;13.95;1.40;;;3.80;99.90;;;;;;5028108;28;20053;-88
2021/03/17 01:20:39;;;;;;;9.75;0.90;;;3.70;99.90;;;;;;5037029;28;20045;-87
2021/03/17 01:23:06;;;;;;;6.18;0.95;;;3.80;99.90;;;;;;5030301;28;20037;-87
2021/03/17 01:25:37;;;;;;;10.98;0.65;;;3.50;99.90;;;;;;5039828;28;20053;-87
2021/03/17 01:28:05;;;;;;;2.95;0.55;;;3.50;99.90;;;;;;5030775;28;20092;-88
2021/03/17 01:30:41;;;;;;;2.85;0.77;;;3.40;99.90;;;;;;5044322;28;20041;-87
2021/03/17 01:33:09;;;;;;;6.35;0.63;;;3.30;99.90;;;;;;5043491;28;20091;-88
2021/03/17 01:35:35;;;;;;;15.52;1.27;;;3.30;99.90;;;;;;5028841;28;20042;-86
2021/03/17 01:38:01;;;;;;;3.72;0.68;;;3.30;99.90;;;;;;5028050;28;20487;-87
2021/03/17 01:40:28;;;;;;;7.70;1.02;;;3.30;99.90;;;;;;5026884;28;20148;-88
2021/03/17 01:42:55;;;;;;;10.23;1.45;;;3.30;99.90;;;;;;5027831;28;20116;-87
2021/03/17 01:45:22;;;;;;;7.28;0.90;;;3.50;99.90;;;;;;5043226;28;20049;-87
2021/03/17 01:47:49;;;;;;;3.53;0.70;;;3.50;99.90;;;;;;5027454;28;20087;-87
2021/03/17 01:50:18;;;;;;;12.40;1.55;;;3.60;99.90;;;;;;5010608;28;20049;-88
2021/03/17 01:52:45;;;;;;;1.77;0.35;;;3.60;99.90;;;;;;5027466;28;20045;-88
2021/03/17 01:55:11;;;;;;;10.60;0.80;;;3.50;99.90;;;;;;5044418;28;20083;-87
2021/03/17 01:57:38;;;;;;;9.52;1.90;;;3.30;99.90;;;;;;5027808;28;20044;-87
2021/03/17 02:00:12;;;;;;;8.55;0.95;;;3.20;99.90;;;;;;5028310;28;20076;-88
2021/03/17 02:02:44;;;;;;;6.65;0.60;;;3.10;99.90;;;;;;5044408;28;20041;-88
2021/03/17 02:05:12;;;;;;;5.18;1.30;;;3.10;99.90;;;;;;5027537;28;20046;-88
2021/03/17 02:07:39;;;;;;;8.68;1.05;;;2.90;99.90;;;;;;5028520;28;20089;-87
2021/03/17 02:10:11;;;;;;;7.00;0.55;;;2.90;99.90;;;;;;5044702;28;20045;-87
2021/03/17 02:12:56;;;;;;;9.95;0.95;;;3.00;99.90;;;;;;5026245;28;20030;-88
2021/03/17 02:15:37;;;;;;;6.60;0.75;;;3.00;99.90;;;;;;5016543;28;20046;-87
2021/03/17 02:18:11;;;;;;;9.38;0.98;;;3.00;99.90;;;;;;5030889;28;20143;-87
2021/03/17 02:20:37;;;;;;;6.72;1.08;;;3.00;99.90;;;;;;5028054;28;20064;-87
2021/03/17 02:23:10;;;;;;;9.57;1.23;;;3.00;99.90;;;;;;5044248;28;20493;-87
2021/03/17 02:26:02;;;;;;;6.65;0.70;;;3.00;99.90;;;;;;5008148;28;20418;-87
2021/03/17 02:28:31;;;;;;;12.48;1.20;;;3.00;99.90;;;;;;5031861;28;20163;-88
2021/03/17 02:31:39;;;;;;;14.82;1.25;;;3.10;99.90;;;;;;5027326;28;20107;-87
2021/03/17 02:34:09;;;;;;;8.15;0.45;;;3.10;99.90;;;;;;5032320;28;20474;-88
2021/03/17 02:36:58;;;;;;;6.70;1.13;;;3.20;99.90;;;;;;5022561;28;20532;-88
2021/03/17 02:39:34;;;;;;;12.45;1.20;;;3.30;99.90;;;;;;5020746;28;20056;-88
2021/03/17 02:42:16;;;;;;;1.75;0.43;;;3.30;99.90;;;;;;5044361;28;20412;-88
2021/03/17 02:44:57;;;;;;;7.35;0.88;;;3.50;99.90;;;;;;5027039;28;20130;-87
2021/03/17 02:47:27;;;;;;;5.05;0.63;;;3.40;99.90;;;;;;5026657;28;20096;-88
2021/03/17 02:49:57;;;;;;;12.25;0.73;;;3.40;99.90;;;;;;5028855;28;20049;-88
2021/03/17 02:52:25;;;;;;;9.27;0.88;;;3.40;99.90;;;;;;5026975;28;20049;-88
2021/03/17 02:54:53;;;;;;;12.95;1.02;;;3.40;99.90;;;;;;5027318;28;20124;-87
2021/03/17 02:57:23;;;;;;;10.77;1.08;;;3.40;99.90;;;;;;5026799;28;20049;-86
2021/03/17 02:59:54;;;;;;;5.32;1.05;;;3.40;99.90;;;;;;5027504;28;20056;-87
2021/03/17 03:02:21;;;;;;;8.32;0.80;;;3.40;99.90;;;;;;5026883;28;20045;-88
2021/03/17 03:04:50;;;;;;;7.47;1.00;;;3.40;99.90;;;;;;5030373;28;20053;-87
2021/03/17 03:07:17;;;;;;;9.70;1.10;;;3.40;99.90;;;;;;5026713;28;20038;-88
2021/03/17 03:09:44;;;;;;;9.68;1.08;;;3.40;99.90;;;;;;5038558;28;20481;-88
2021/03/17 03:12:11;;;;;;;19.30;1.60;;;3.50;99.90;;;;;;5047590;28;20494;-87
2021/03/17 03:14:38;;;;;;;13.82;1.10;;;3.50;99.90;;;;;;5029708;28;20162;-87
2021/03/17 03:17:06;;;;;;;6.03;0.90;;;3.50;99.90;;;;;;5030969;28;20095;-87
2021/03/17 03:19:41;;;;;;;10.32;0.80;;;3.50;99.90;;;;;;5029593;28;20049;-88
2021/03/17 03:22:10;;;;;;;8.68;1.98;;;3.50;99.90;;;;;;5035596;28;20057;-88
2021/03/17 03:24:37;;;;;;;8.60;1.05;;;3.50;99.90;;;;;;5044969;28;20101;-88
2021/03/17 03:27:04;;;;;;;5.93;0.95;;;3.50;99.90;;;;;;5047290;28;20413;-86
2021/03/17 03:29:33;;;;;;;11.40;1.40;;;3.50;99.90;;;;;;5029437;28;20048;-87
2021/03/17 03:31:59;;;;;;;7.47;0.70;;;3.50;99.90;;;;;;5031084;28;20042;-88
2021/03/17 03:34:25;;;;;;;9.68;1.48;;;3.50;99.90;;;;;;5048251;28;20038;-87
2021/03/17 03:36:51;;;;;;;10.20;1.20;;;3.50;99.90;;;;;;5043926;28;20049;-87
2021/03/17 03:39:17;;;;;;;5.85;1.33;;;3.60;99.90;;;;;;5030176;28;20037;-87
2021/03/17 03:41:43;;;;;;;7.97;1.13;;;3.60;99.90;;;;;;5032116;28;20040;-88
2021/03/17 03:44:09;;;;;;;11.00;1.05;;;3.60;99.90;;;;;;5032447;28;20056;-87
2021/03/17 03:46:37;;;;;;;15.10;1.40;;;3.70;99.90;;;;;;5036264;28;20116;-87
2021/03/17 03:49:05;;;;;;;7.28;0.98;;;3.70;99.90;;;;;;5023273;28;20049;-88
2021/03/17 03:51:33;;;;;;;16.55;1.70;;;3.70;99.90;;;;;;5017297;28;20069;-87
2021/03/17 03:54:23;;;;;;;8.80;1.25;;;3.70;99.90;;;;;;5032346;28;20056;-87
2021/03/17 03:56:51;;;;;;;12.55;1.58;;;3.70;99.90;;;;;;5020727;28;20036;-87
2021/03/17 03:59:27;;;;;;;13.75;1.38;;;3.70;99.90;;;;;;5031790;28;20100;-87
2021/03/17 04:01:59;;;;;;;16.42;1.67;;;3.70;99.90;;;;;;5024585;28;20055;-87
2021/03/17 04:04:31;;;;;;;20.83;1.17;;;3.70;99.90;;;;;;5029928;28;20057;-87
2021/03/17 04:07:01;;;;;;;4.60;0.63;;;3.90;99.90;;;;;;5034733;28;20048;-87
2021/03/17 04:09:30;;;;;;;11.10;1.67;;;3.70;99.90;;;;;;5017033;28;20049;-87
2021/03/17 04:12:02;;;;;;;15.25;1.55;;;3.70;99.90;;;;;;5027011;28;20050;-87
2021/03/17 04:14:29;;;;;;;9.82;0.93;;;3.90;99.90;;;;;;5028677;28;20480;-88
2021/03/17 04:17:14;;;;;;;15.13;1.27;;;4.10;99.90;;;;;;5029987;28;20049;-87
2021/03/17 04:19:43;;;;;;;9.25;0.98;;;3.80;99.90;;;;;;5028469;28;20045;-87
2021/03/17 04:22:10;;;;;;;15.25;1.70;;;3.80;99.90;;;;;;5030871;28;20041;-86
2021/03/17 04:24:39;;;;;;;8.68;1.05;;;3.80;99.90;;;;;;5028899;28;20052;-87
2021/03/17 04:27:08;;;;;;;4.57;1.02;;;3.80;99.90;;;;;;5029672;28;20404;-87
2021/03/17 04:29:34;;;;;;;14.82;1.35;;;3.90;99.90;;;;;;5028620;28;20049;-88
2021/03/17 04:32:03;;;;;;;14.80;1.08;;;3.90;99.90;;;;;;5029824;28;20041;-87
2021/03/17 04:34:30;;;;;;;2.83;0.75;;;3.90;99.90;;;;;;5028693;28;20052;-87
2021/03/17 04:36:57;;;;;;;11.98;1.25;;;3.90;99.90;;;;;;5046009;28;20060;-87
2021/03/17 04:39:24;;;;;;;14.27;1.80;;;4.00;99.90;;;;;;5030512;28;20049;-88
2021/03/17 04:41:54;;;;;;;14.90;1.60;;;4.00;99.90;;;;;;5029002;28;20037;-87
2021/03/17 04:44:22;;;;;;;11.95;1.88;;;4.00;99.90;;;;;;5029536;28;20041;-88
2021/03/17 04:46:49;;;;;;;20.40;2.05;;;4.00;99.90;;;;;;5028044;28;20036;-85
2021/03/17 04:49:18;;;;;;;3.63;1.40;;;4.10;99.90;;;;;;5012587;28;20103;-86
2021/03/17 04:51:44;;;;;;;12.75;1.58;;;4.10;99.90;;;;;;5028136;28;20068;-86
2021/03/17 04:54:10;;;;;;;6.38;1.48;;;4.40;99.90;;;;;;5045939;28;20061;-86
2021/03/17 04:56:38;;;;;;;6.38;0.95;;;4.10;99.90;;;;;;5028017;28;20041;-86
2021/03/17 04:59:06;;;;;;;10.30;1.58;;;4.20;99.90;;;;;;5045411;28;20470;-85
2021/03/17 05:01:35;;;;;;;14.38;1.25;;;4.20;99.90;;;;;;5028219;28;20044;-85
2021/03/17 05:04:03;;;;;;;19.33;1.83;;;4.30;99.90;;;;;;5032824;28;20041;-86
2021/03/17 05:06:33;;;;;;;6.15;1.00;;;4.10;99.90;;;;;;5028839;28;20049;-86
2021/03/17 05:09:01;;;;;;;6.63;0.75;;;4.00;99.90;;;;;;5028044;28;20061;-85
2021/03/17 05:11:29;;;;;;;5.45;0.65;;;4.00;99.90;;;;;;5029039;28;20057;-86
2021/03/17 05:13:55;;;;;;;8.68;0.88;;;4.00;99.90;;;;;;5028173;28;20076;-85
2021/03/17 05:16:21;;;;;;;8.95;1.40;;;3.90;99.90;;;;;;5044561;28;20041;-86
2021/03/17 05:18:49;;;;;;;10.32;1.13;;;3.90;99.90;;;;;;5044342;28;20049;-86
2021/03/17 05:21:16;;;;;;;9.30;0.90;;;4.00;99.90;;;;;;5028382;28;20477;-85
2021/03/17 05:23:42;;;;;;;13.10;1.02;;;4.00;99.90;;;;;;5011509;28;20452;-85
2021/03/17 05:26:10;;;;;;;15.65;1.83;;;4.00;99.90;;;;;;5028039;28;20136;-86
2021/03/17 05:28:39;;;;;;;14.63;2.42;;;4.10;99.90;;;;;;5027418;28;20477;-85
2021/03/17 05:31:08;;;;;;;6.20;1.10;;;4.00;99.90;;;;;;5028082;28;20037;-85
2021/03/17 05:33:35;;;;;;;7.50;1.10;;;4.10;99.90;;;;;;5028066;28;20044;-85
2021/03/17 05:36:01;;;;;;;7.50;0.93;;;4.10;99.90;;;;;;5011697;28;20095;-85
2021/03/17 05:38:27;;;;;;;5.65;1.13;;;4.10;99.90;;;;;;5011704;28;20056;-85
2021/03/17 05:40:55;;;;;;;8.20;0.73;;;4.10;99.90;;;;;;5030218;28;20034;-85
2021/03/17 05:43:22;;;;;;;3.50;0.68;;;4.20;99.90;;;;;;5028509;28;20037;-85
2021/03/17 05:45:49;;;;;;;10.48;1.40;;;4.20;99.90;;;;;;5043838;28;20029;-85
2021/03/17 05:48:16;;;;;;;3.70;0.57;;;4.10;99.90;;;;;;5029110;28;20056;-84
2021/03/17 05:50:43;;;;;;;15.98;1.80;;;4.20;99.90;;;;;;5035783;28;20029;-85
2021/03/17 05:53:09;;;;;;;4.50;0.68;;;4.20;99.90;;;;;;5056698;28;20037;-84
2021/03/17 05:55:37;;;;;;;10.23;1.45;;;4.20;99.90;;;;;;5059669;28;20043;-85
2021/03/17 05:58:03;;;;;;;13.60;1.40;;;4.20;99.90;;;;;;5021978;28;20102;-85
2021/03/17 06:00:29;;;;;;;7.10;1.08;;;4.20;99.90;;;;;;5024474;28;20547;-85
2021/03/17 06:02:56;;;;;;;7.50;1.13;;;4.20;99.90;;;;;;5035396;28;20087;-85
2021/03/17 06:05:23;;;;;;;8.80;0.60;;;4.30;99.90;;;;;;5039569;28;20087;-85
2021/03/17 06:08:01;;;;;;;4.10;0.38;;;4.30;99.90;;;;;;5055848;28;20064;-85
2021/03/17 06:10:27;;;;;;;5.88;0.70;;;4.20;99.90;;;;;;5017739;28;20052;-85
2021/03/17 06:13:09;;;;;;;3.72;1.02;;;4.30;99.90;;;;;;5027209;28;20050;-85
2021/03/17 06:15:41;;;;;;;9.07;1.48;;;4.30;99.90;;;;;;5044565;28;20056;-85
2021/03/17 06:18:16;;;;;;;12.23;2.38;;;4.30;99.90;;;;;;5027847;28;20045;-85
2021/03/17 06:20:43;;;;;;;10.15;0.88;;;4.20;99.90;;;;;;5028814;28;20041;-85
2021/03/17 06:23:09;;;;;;;11.48;1.60;;;4.20;99.90;;;;;;5027219;28;20111;-85
2021/03/17 06:25:36;;;;;;;17.52;1.33;;;4.20;99.90;;;;;;5044571;28;20055;-85
2021/03/17 06:28:02;;;;;;;7.97;1.35;;;4.30;99.90;;;;;;5027803;28;20037;-84
2021/03/17 06:30:29;;;;;;;4.72;0.50;;;4.20;99.90;;;;;;5028060;28;20065;-84
2021/03/17 06:32:54;;;;;;;8.32;1.10;;;4.20;99.90;;;;;;5026670;28;20045;-84
2021/03/17 06:35:24;;;;;;;5.05;1.80;;;4.20;99.90;;;;;;5027767;28;20055;-84
2021/03/17 06:37:50;;;;;;;9.55;1.50;;;4.20;99.90;;;;;;5026186;28;20046;-84
2021/03/17 06:40:25;;;;;;;8.20;1.52;;;4.20;99.90;;;;;;5015703;28;20395;-84
2021/03/17 06:42:51;;;;;;;7.88;1.50;;;4.40;99.90;;;;;;5026225;28;20137;-85
2021/03/17 06:45:48;;;;;;;7.60;1.38;;;4.50;99.90;;;;;;5034910;28;20064;-85
2021/03/17 06:48:20;;;;;;;11.02;1.67;;;4.30;99.90;;;;;;5031167;28;20037;-85
2021/03/17 06:51:01;;;;;;;17.40;1.38;;;4.30;99.90;;;;;;5031489;28;20037;-86
2021/03/17 06:53:40;;;;;;;15.57;2.20;;;4.40;99.90;;;;;;5031770;28;20124;-84
2021/03/17 06:56:15;;;;;;;7.40;1.25;;;4.40;99.90;;;;;;5039747;28;20222;-85
2021/03/17 06:58:50;;;;;;;26.17;2.70;;;4.40;99.90;;;;;;5030469;28;20063;-85
2021/03/17 07:01:36;;;;;;;11.27;1.67;;;4.50;99.90;;;;;;5029892;28;20129;-85
2021/03/17 07:04:11;;;;;;;12.02;1.90;;;4.60;99.90;;;;;;5046857;28;20079;-85
2021/03/17 07:06:42;;;;;;;9.15;1.60;;;4.60;99.90;;;;;;5031061;28;20056;-84
2021/03/17 07:09:25;;;;;;;7.10;1.30;;;4.70;99.90;;;;;;5030158;28;20076;-83
2021/03/17 07:12:04;;;;;;;5.40;0.75;;;4.60;99.90;;;;;;5046477;28;20060;-85
2021/03/17 07:14:37;;;;;;;12.82;1.00;;;4.70;99.90;;;;;;5030946;28;20068;-84
2021/03/17 07:17:03;;;;;;;6.22;0.90;;;4.70;99.90;;;;;;5031594;28;20049;-88
2021/03/17 07:19:38;;;;;;;14.85;1.58;;;4.70;99.90;;;;;;5034368;28;20040;-86
2021/03/17 07:22:08;;;;;;;9.68;1.90;;;4.70;99.90;;;;;;5047358;28;20180;-87
2021/03/17 07:24:39;;;;;;;7.32;1.23;;;4.70;99.90;;;;;;5031633;28;20813;-87
2021/03/17 07:27:33;;;;;;;13.73;2.08;;;4.70;99.90;;;;;;5031131;28;20482;-87
2021/03/17 07:29:58;;;;;;;9.52;1.30;;;4.70;99.90;;;;;;5026086;28;20061;-86
2021/03/17 07:32:30;;;;;;;15.20;2.70;;;4.70;99.90;;;;;;5039733;28;20398;-87
2021/03/17 07:34:56;;;;;;;11.98;0.93;;;4.70;99.90;;;;;;5020039;28;20049;-86
2021/03/17 07:37:25;;;;;;;13.45;2.22;;;4.80;99.90;;;;;;5037848;28;20072;-86
2021/03/17 07:39:53;;;;;;;9.00;1.52;;;4.70;99.90;;;;;;5051201;28;20041;-86
2021/03/17 07:42:20;;;;;;;15.27;1.58;;;4.90;99.90;;;;;;5031672;28;20042;-87
2021/03/17 07:44:47;;;;;;;6.78;0.98;;;4.80;99.90;;;;;;5049873;28;20056;-87
2021/03/17 07:47:13;;;;;;;8.00;0.60;;;4.90;99.90;;;;;;5029821;28;20599;-86
2021/03/17 07:49:42;;;;;;;17.98;2.63;;;4.90;99.90;;;;;;5045381;28;20402;-87
2021/03/17 07:52:19;;;;;;;5.53;1.13;;;5.00;99.90;;;;;;5041585;28;20046;-87
2021/03/17 07:54:51;;;;;;;8.00;1.55;;;4.90;99.90;;;;;;5022501;28;20441;-87
2021/03/17 07:57:17;;;;;;;4.13;0.80;;;4.90;99.90;;;;;;5053181;28;20485;-88
2021/03/17 07:59:43;;;;;;;5.15;1.15;;;4.90;99.90;;;;;;5048816;28;20507;-87
2021/03/17 08:02:10;;;;;;;1.35;0.40;;;4.90;99.90;;;;;;5048194;28;20492;-87
2021/03/17 08:04:35;;;;;;;5.82;1.05;;;4.90;99.90;;;;;;5016486;28;20052;-87
2021/03/17 08:07:03;;;;;;;6.00;1.00;;;4.90;99.90;;;;;;5031937;28;20041;-87
2021/03/17 08:09:30;;;;;;;18.45;2.67;;;4.80;99.90;;;;;;5027736;28;20057;-87
2021/03/17 08:12:02;;;;;;;10.23;1.08;;;4.80;99.90;;;;;;5029647;28;20124;-87
2021/03/17 08:14:29;;;;;;;10.50;1.30;;;4.70;99.90;;;;;;5029710;28;20457;-87
2021/03/17 08:16:55;;;;;;;8.73;0.90;;;4.70;99.90;;;;;;5030854;28;20059;-87
2021/03/17 08:19:24;;;;;;;15.65;1.38;;;4.70;99.90;;;;;;5012729;28;20155;-87
2021/03/17 08:21:56;;;;;;;8.82;1.38;;;4.70;99.90;;;;;;5045986;28;20029;-87
2021/03/17 08:24:35;;;;;;;5.72;1.33;;;4.80;99.90;;;;;;5044904;28;20037;-87
2021/03/17 08:27:07;;;;;;;4.90;0.55;;;4.90;99.90;;;;;;5030122;28;20538;-88
2021/03/17 08:29:40;;;;;;;15.48;1.33;;;5.00;99.90;;;;;;5045690;28;20041;-87
2021/03/17 08:32:08;;;;;;;6.50;1.40;;;5.10;99.90;;;;;;5028732;28;20069;-87
2021/03/17 08:34:36;;;;;;;6.90;0.50;;;5.10;99.90;;;;;;5045140;28;20095;-87
2021/03/17 08:37:03;;;;;;;2.13;0.50;;;5.30;99.90;;;;;;5021584;28;20156;-87
2021/03/17 08:39:29;;;;;;;6.32;1.08;;;5.30;99.90;;;;;;5026491;28;20058;-88
2021/03/17 08:42:12;;;;;;;7.95;1.58;;;5.40;99.90;;;;;;5045672;28;20037;-87
2021/03/17 08:44:37;;;;;;;9.98;1.40;;;5.50;99.90;;;;;;5030456;28;20041;-87
2021/03/17 08:47:45;;;;;;;8.02;1.13;;;5.50;99.90;;;;;;5044501;28;20046;-87
2021/03/17 08:50:15;;;;;;;2.85;1.00;;;5.60;99.90;;;;;;5011472;28;20133;-87
2021/03/17 08:52:46;;;;;;;11.02;1.20;;;5.60;99.90;;;;;;5037000;28;20394;-88
2021/03/17 08:55:13;;;;;;;2.40;0.50;;;5.60;99.90;;;;;;5011354;28;20068;-88
2021/03/17 08:57:49;;;;;;;3.53;1.13;;;5.60;99.90;;;;;;5029995;28;20045;-88
2021/03/17 09:00:42;;;;;;;6.10;1.27;;;5.50;99.90;;;;;;5044218;28;20559;-87
2021/03/17 09:03:09;;;;;;;6.25;1.05;;;5.50;99.90;;;;;;5029319;28;20037;-87
2021/03/17 09:05:35;;;;;;;1.85;0.60;;;5.60;99.90;;;;;;5025629;28;20127;-87
2021/03/17 09:08:10;;;;;;;8.20;0.63;;;5.90;99.90;;;;;;5044387;28;20545;-87
2021/03/17 09:10:46;;;;;;;6.93;1.15;;;5.60;99.90;;;;;;5043664;28;20076;-86
2021/03/17 09:13:16;;;;;;;13.40;1.20;;;5.70;99.90;;;;;;5028313;28;20045;-87
2021/03/17 09:15:47;;;;;;;5.32;0.60;;;5.70;99.90;;;;;;5045297;28;20041;-87
2021/03/17 09:18:14;;;;;;;14.50;1.38;;;5.70;99.90;;;;;;5009122;28;20104;-87
2021/03/17 09:20:41;;;;;;;6.95;1.13;;;5.70;99.90;;;;;;5028525;28;20126;-87
2021/03/17 09:23:15;;;;;;;4.85;0.85;;;5.60;99.90;;;;;;5010288;28;20057;-88
2021/03/17 09:25:40;;;;;;;9.68;1.67;;;5.50;99.90;;;;;;5008989;28;20478;-87
2021/03/17 09:28:29;;;;;;;8.30;1.10;;;5.50;99.90;;;;;;5011640;28;20048;-87
2021/03/17 09:31:04;;;;;;;10.18;1.45;;;5.50;99.90;;;;;;5029014;28;20052;-87
2021/03/17 09:33:35;;;;;;;16.25;2.22;;;5.50;99.90;;;;;;5025498;28;20065;-87
2021/03/17 09:36:03;;;;;;;4.90;1.00;;;5.60;99.90;;;;;;5011405;28;20064;-87
2021/03/17 09:38:34;;;;;;;5.32;1.20;;;5.70;99.90;;;;;;5025301;28;20725;-86
2021/03/17 09:41:16;;;;;;;3.20;0.70;;;5.70;99.90;;;;;;5012652;28;20521;-87
2021/03/17 09:43:54;;;;;;;5.03;0.88;;;5.70;99.90;;;;;;5026066;28;20038;-88
2021/03/17 09:46:36;;;;;;;9.77;0.80;;;5.70;99.90;;;;;;5011215;28;20457;-87
2021/03/17 09:49:06;;;;;;;6.10;0.85;;;5.70;99.90;;;;;;5044568;28;20042;-85
2021/03/17 09:51:35;;;;;;;19.13;2.35;;;5.80;99.90;;;;;;5014834;28;20171;-86
2021/03/17 09:54:03;;;;;;;6.13;1.00;;;5.80;99.90;;;;;;5016145;28;20477;-86
2021/03/17 09:56:45;;;;;;;3.95;0.50;;;5.80;99.90;;;;;;5015655;28;20141;-86
2021/03/17 09:59:19;;;;;;;5.93;1.20;;;5.80;99.90;;;;;;5010570;28;20171;-86
2021/03/17 10:01:59;;;;;;;9.40;1.25;;;5.60;99.90;;;;;;5018832;28;20087;-86
2021/03/17 10:04:28;;;;;;;12.40;1.85;;;5.80;99.90;;;;;;5021540;28;20148;-86
2021/03/17 10:06:54;;;;;;;1.52;0.88;;;5.90;99.90;;;;;;5012329;28;20401;-86
2021/03/17 10:09:21;;;;;;;6.63;1.02;;;5.90;99.90;;;;;;5025751;28;20152;-85
2021/03/17 10:11:47;;;;;;;12.27;0.75;;;5.90;99.90;;;;;;5045874;28;20033;-85
2021/03/17 10:14:15;;;;;;;9.93;1.25;;;6.10;99.90;;;;;;5045017;28;20060;-85
2021/03/17 10:16:42;;;;;;;10.55;1.27;;;6.10;99.90;;;;;;5032671;28;20045;-85
2021/03/17 10:19:12;;;;;;;1.60;0.20;;;6.10;99.90;;;;;;5043786;28;20100;-85
2021/03/17 10:21:39;;;;;;;11.30;1.20;;;6.00;99.90;;;;;;5031778;28;20117;-85
2021/03/17 10:24:06;;;;;;;8.68;2.05;;;6.10;99.90;;;;;;5030136;28;20045;-84
2021/03/17 10:26:33;;;;;;;13.15;1.40;;;6.00;99.90;;;;;;5016497;28;20065;-84
2021/03/17 10:29:00;;;;;;;10.73;1.40;;;6.00;99.90;;;;;;5031691;28;20911;-84
2021/03/17 10:31:31;;;;;;;2.28;0.50;;;5.90;99.90;;;;;;5022517;28;20128;-84
2021/03/17 10:33:58;;;;;;;5.57;1.48;;;5.90;99.90;;;;;;5028709;28;20038;-84
2021/03/17 10:36:24;;;;;;;8.77;1.60;;;5.90;99.90;;;;;;5028110;28;20056;-84
2021/03/17 10:38:53;;;;;;;3.80;0.90;;;5.90;99.90;;;;;;5027553;28;20041;-84
2021/03/17 10:41:45;;;;;;;7.97;1.00;;;5.90;99.90;;;;;;5026666;28;20485;-84
2021/03/17 10:44:15;;;;;;;10.77;1.33;;;6.00;99.90;;;;;;5029399;28;20045;-84
2021/03/17 10:47:05;;;;;;;1.98;0.28;;;6.00;99.90;;;;;;5047098;28;20030;-84
2021/03/17 10:49:33;;;;;;;5.28;0.73;;;6.00;99.90;;;;;;5027643;28;21013;-84
2021/03/17 10:51:59;;;;;;;2.95;0.85;;;6.10;99.90;;;;;;5045706;28;20436;-84
2021/03/17 10:54:42;;;;;;;6.32;1.05;;;6.10;99.90;;;;;;5009744;28;20486;-85
2021/03/17 10:57:08;;;;;;;12.82;1.45;;;6.00;99.90;;;;;;5024317;28;20481;-85
2021/03/17 10:59:38;;;;;;;12.98;1.20;;;5.90;99.90;;;;;;5026909;28;20084;-83
2021/03/17 11:02:18;;;;;;;8.45;0.93;;;6.00;99.90;;;;;;5045578;28;20076;-83
2021/03/17 11:05:05;;;;;;;15.75;2.10;;;6.00;99.90;;;;;;5025377;28;20088;-83
2021/03/17 11:07:57;;;;;;;9.57;1.00;;;6.00;99.90;;;;;;5022870;28;20056;-83
2021/03/17 11:10:29;;;;;;;9.13;1.55;;;6.00;99.90;;;;;;5033193;28;20052;-84
2021/03/17 11:12:55;;;;;;;11.88;1.20;;;5.90;99.90;;;;;;5029997;28;20042;-83
2021/03/17 11:15:30;;;;;;;7.20;0.98;;;6.00;99.90;;;;;;5026093;28;20132;-84
2021/03/17 11:17:58;;;;;;;8.57;1.67;;;6.10;99.90;;;;;;5046782;28;20045;-85
2021/03/17 11:20:25;;;;;;;5.03;1.25;;;6.10;99.90;;;;;;5026526;28;20045;-85
2021/03/17 11:22:51;;;;;;;8.05;0.70;;;6.00;99.90;;;;;;5029870;28;20045;-85
2021/03/17 11:25:25;;;;;;;7.55;1.13;;;6.00;99.90;;;;;;5045664;28;20091;-85
2021/03/17 11:27:51;;;;;;;10.82;1.77;;;6.00;99.90;;;;;;5034564;28;20246;-86
2021/03/17 11:30:18;;;;;;;9.80;1.60;;;5.90;99.90;;;;;;5031737;28;20490;-85
2021/03/17 11:32:44;;;;;;;15.90;2.72;;;6.10;99.90;;;;;;5046681;28;20037;-86
2021/03/17 11:35:12;;;;;;;10.88;1.30;;;6.20;99.90;;;;;;5030001;28;20045;-85
2021/03/17 11:37:38;;;;;;;8.40;0.88;;;6.20;99.90;;;;;;5025006;28;20084;-86
2021/03/17 11:40:05;;;;;;;13.57;1.08;;;6.20;99.90;;;;;;5032084;28;20113;-86
2021/03/17 11:42:31;;;;;;;11.93;1.85;;;6.30;99.90;;;;;;5038584;28;20043;-86
2021/03/17 11:44:57;;;;;;;7.43;1.10;;;6.40;99.90;;;;;;5037137;28;20156;-86
2021/03/17 11:47:23;;;;;;;10.07;1.73;;;6.40;99.90;;;;;;5013309;28;20849;-85
2021/03/17 11:49:48;;;;;;;8.63;1.23;;;6.30;99.90;;;;;;5052176;28;20069;-86
2021/03/17 11:52:14;;;;;;;11.65;1.67;;;6.20;99.90;;;;;;5043638;28;20397;-86
2021/03/17 11:54:40;;;;;;;3.63;0.85;;;6.20;99.90;;;;;;5047586;28;20041;-86
2021/03/17 11:57:06;;;;;;;19.30;2.33;;;6.10;99.90;;;;;;5026736;28;20076;-86
2021/03/17 11:59:32;;;;;;;11.60;1.42;;;6.10;99.90;;;;;;5031627;28;20070;-86
2021/03/17 12:01:58;;;;;;;12.73;1.63;;;6.10;99.90;;;;;;5052609;28;20567;-86
2021/03/17 12:04:24;;;;;;;3.92;1.00;;;6.10;99.90;;;;;;5055875;28;20033;-86
2021/03/17 12:06:49;;;;;;;18.45;1.65;;;6.10;99.90;;;;;;5034065;28;20497;-86
2021/03/17 12:09:15;;;;;;;7.68;1.50;;;6.10;99.90;;;;;;5051927;28;20498;-86
2021/03/17 12:11:42;;;;;;;11.50;1.30;;;6.30;99.90;;;;;;5037079;28;20646;-86
2021/03/17 12:14:08;;;;;;;19.58;1.50;;;6.40;99.90;;;;;;5029062;28;20053;-86
2021/03/17 12:16:34;;;;;;;6.90;0.73;;;6.60;99.90;;;;;;5027498;28;20053;-86
2021/03/17 12:19:00;;;;;;;4.38;0.85;;;6.50;99.90;;;;;;5045786;28;20068;-86
2021/03/17 12:21:26;;;;;;;14.82;1.48;;;6.50;99.90;;;;;;5045507;28;20037;-86
2021/03/17 12:23:52;;;;;;;8.40;1.33;;;6.50;99.90;;;;;;5029548;28;20053;-86
2021/03/17 12:26:18;;;;;;;8.95;1.02;;;6.50;99.90;;;;;;5029105;28;20121;-86
2021/03/17 12:28:44;;;;;;;7.10;0.80;;;6.50;99.90;;;;;;5028715;28;20049;-86
2021/03/17 12:31:10;;;;;;;5.22;0.93;;;6.60;99.90;;;;;;5045416;28;20045;-86
2021/03/17 12:33:36;;;;;;;3.15;0.90;;;6.60;99.90;;;;;;5028333;28;20460;-86
2021/03/17 12:36:03;;;;;;;6.20;1.13;;;6.80;99.90;;;;;;5028892;28;20238;-86
2021/03/17 12:38:29;;;;;;;7.72;1.38;;;6.80;99.90;;;;;;5029653;28;20464;-87
2021/03/17 12:40:55;;;;;;;8.20;1.42;;;6.80;99.90;;;;;;5028819;28;20124;-87
2021/03/17 12:43:21;;;;;;;5.40;0.63;;;6.90;99.90;;;;;;5030464;28;20056;-86
2021/03/17 12:45:47;;;;;;;5.07;1.08;;;6.90;99.90;;;;;;5044178;28;20116;-87
2021/03/17 12:48:14;;;;;;;0.55;0.17;;;6.90;99.90;;;;;;5029119;28;20052;-86
2021/03/17 12:50:40;;;;;;;13.18;1.27;;;7.00;99.90;;;;;;5027755;28;20045;-86
2021/03/17 12:53:06;;;;;;;6.97;1.25;;;6.90;99.90;;;;;;5028899;28;20067;-86
2021/03/17 12:55:32;;;;;;;9.20;1.17;;;6.90;99.90;;;;;;5022776;28;20462;-87
2021/03/17 12:57:59;;;;;;;13.45;1.08;;;7.00;99.90;;;;;;5038632;28;20655;-86
2021/03/17 13:00:27;;;;;;;11.75;1.02;;;7.00;99.90;;;;;;5042698;28;20088;-86
2021/03/17 13:02:53;;;;;;;6.18;0.63;;;7.00;99.90;;;;;;5029584;28;20072;-86
2021/03/17 13:05:19;;;;;;;11.25;1.70;;;7.00;99.90;;;;;;5028839;28;20061;-86